Аэропорт: Кадала. Чита

ICAO: UIAA

METAR:
2018/07/16 19:30
UIAA 161930Z 01003MPS 9999 NSC 17/15 Q1004 R29/CLRD70 NOSIG RMK QFE695/0927
METAR:
2018/07/16 18:21
TAF UIAA 161700Z 1618/1718 04003MPS 9999 SCT040CB 
      TEMPO 1618/1701 0500 FG VV001